createdAt,value
2023-05-14T00:00:16.075Z,67.00
2023-05-14T00:02:42.761Z,66.84
2023-05-14T00:05:09.781Z,66.86
2023-05-14T00:07:36.385Z,66.92
2023-05-14T00:10:03.003Z,66.79
2023-05-14T00:12:30.060Z,66.86
2023-05-14T00:14:56.660Z,66.78
2023-05-14T00:17:23.298Z,67.27
2023-05-14T00:19:49.998Z,66.81
2023-05-14T00:22:16.563Z,67.11
2023-05-14T00:24:43.223Z,67.25
2023-05-14T00:27:09.774Z,66.89
2023-05-14T00:29:36.352Z,67.13
2023-05-14T00:32:03.315Z,67.18
2023-05-14T00:34:30.886Z,67.94
2023-05-14T00:36:57.465Z,67.38
2023-05-14T00:39:24.039Z,67.34
2023-05-14T00:41:51.894Z,67.79
2023-05-14T00:44:18.459Z,67.60
2023-05-14T00:46:45.240Z,67.76
2023-05-14T00:49:11.846Z,67.51
2023-05-14T00:51:38.449Z,67.12
2023-05-14T00:54:05.065Z,67.42
2023-05-14T00:56:31.633Z,67.81
2023-05-14T00:58:58.564Z,68.13
2023-05-14T01:01:25.206Z,67.58
2023-05-14T01:03:52.073Z,67.24
2023-05-14T01:06:18.710Z,66.79
2023-05-14T01:08:45.294Z,67.00
2023-05-14T01:11:11.897Z,66.94
2023-05-14T01:13:38.453Z,66.86
2023-05-14T01:16:05.081Z,66.61
2023-05-14T01:18:31.775Z,66.56
2023-05-14T01:20:58.368Z,66.61
2023-05-14T01:23:24.959Z,67.15
2023-05-14T01:25:52.473Z,67.36
2023-05-14T01:28:19.141Z,67.17
2023-05-14T01:30:45.726Z,67.72
2023-05-14T01:33:12.313Z,67.31
2023-05-14T01:35:39.244Z,67.71
2023-05-14T01:38:05.814Z,67.41
2023-05-14T01:40:33.065Z,67.03
2023-05-14T01:42:59.678Z,67.42
2023-05-14T01:45:26.299Z,67.58
2023-05-14T01:47:52.902Z,67.25
2023-05-14T01:50:19.488Z,68.00
2023-05-14T01:52:46.226Z,69.04
2023-05-14T01:55:12.817Z,69.10
2023-05-14T01:57:39.404Z,68.52
2023-05-14T02:00:07.239Z,69.72
2023-05-14T02:02:33.892Z,70.57
2023-05-14T02:05:00.529Z,70.91
2023-05-14T02:07:27.096Z,72.50
2023-05-14T02:09:53.716Z,73.80
2023-05-14T02:12:20.289Z,74.76
2023-05-14T02:14:46.885Z,74.47
2023-05-14T02:17:13.473Z,74.41
2023-05-14T02:19:39.979Z,73.33
2023-05-14T02:22:07.309Z,73.63
2023-05-14T02:24:33.889Z,72.64
2023-05-14T02:27:00.587Z,72.10
2023-05-14T02:29:27.337Z,72.45
2023-05-14T02:31:54.026Z,73.07
2023-05-14T02:34:20.667Z,73.31
2023-05-14T02:36:47.247Z,73.83
2023-05-14T02:39:13.808Z,73.38
2023-05-14T02:41:40.395Z,73.25
2023-05-14T02:44:06.974Z,73.18
2023-05-14T02:46:33.624Z,73.08
2023-05-14T02:49:00.278Z,74.32
2023-05-14T02:51:27.051Z,74.06
2023-05-14T02:53:53.645Z,73.55
2023-05-14T02:56:20.215Z,73.14
2023-05-14T02:58:46.816Z,73.16
2023-05-14T03:01:13.488Z,74.14
2023-05-14T03:03:40.883Z,74.98
2023-05-14T03:06:07.666Z,74.78
2023-05-14T03:08:34.819Z,74.15
2023-05-14T03:11:01.406Z,75.10
2023-05-14T03:13:27.978Z,75.74
2023-05-14T03:15:54.556Z,75.46
2023-05-14T03:18:21.142Z,75.29
2023-05-14T03:20:47.736Z,74.44
2023-05-14T03:23:14.369Z,74.73
2023-05-14T03:25:41.630Z,74.16
2023-05-14T03:28:08.208Z,73.15
2023-05-14T03:30:35.544Z,72.43
2023-05-14T03:33:02.188Z,72.01
2023-05-14T03:35:28.794Z,71.98
2023-05-14T03:37:55.387Z,71.77
2023-05-14T03:40:22.089Z,71.86
2023-05-14T03:42:48.885Z,71.25
2023-05-14T03:45:15.552Z,71.14
2023-05-14T03:47:42.195Z,71.65
2023-05-14T03:50:08.814Z,71.08
2023-05-14T03:52:35.406Z,71.64
2023-05-14T03:55:01.962Z,71.46
2023-05-14T03:57:28.652Z,71.10
2023-05-14T03:59:55.235Z,71.32
2023-05-14T04:02:21.847Z,70.79
2023-05-14T04:04:48.489Z,69.92
2023-05-14T04:07:15.140Z,70.56
2023-05-14T04:09:41.742Z,70.27
2023-05-14T04:12:08.475Z,69.63
2023-05-14T04:14:36.682Z,70.50
2023-05-14T04:17:03.256Z,69.88
2023-05-14T04:19:29.862Z,69.73
2023-05-14T04:21:56.436Z,69.56
2023-05-14T04:24:23.015Z,68.63
2023-05-14T04:26:49.602Z,68.42
2023-05-14T04:29:16.201Z,68.38
2023-05-14T04:31:42.857Z,68.40
2023-05-14T04:34:10.038Z,70.07
2023-05-14T04:36:36.646Z,69.56
2023-05-14T04:39:03.204Z,68.74
2023-05-14T04:41:29.778Z,68.86
2023-05-14T04:43:56.378Z,69.61
2023-05-14T04:46:23.029Z,69.96
2023-05-14T04:48:49.652Z,69.73
2023-05-14T04:51:16.245Z,69.30
2023-05-14T04:53:42.805Z,69.03
2023-05-14T04:56:09.394Z,67.96
2023-05-14T04:58:36.004Z,67.80
2023-05-14T05:01:02.631Z,67.71
2023-05-14T05:03:29.498Z,67.66
2023-05-14T05:05:56.145Z,68.03
2023-05-14T05:08:22.754Z,68.62
2023-05-14T05:10:49.314Z,68.61
2023-05-14T05:13:15.896Z,68.07
2023-05-14T05:15:42.560Z,67.55
2023-05-14T05:18:09.182Z,67.76
2023-05-14T05:20:35.868Z,67.79
2023-05-14T05:23:02.695Z,67.55
2023-05-14T05:25:31.338Z,67.20
2023-05-14T05:27:57.908Z,67.45
2023-05-14T05:30:24.590Z,67.31
2023-05-14T05:32:51.378Z,67.36
2023-05-14T05:35:18.005Z,67.26
2023-05-14T05:37:44.586Z,67.00
2023-05-14T05:40:11.171Z,66.76
2023-05-14T05:42:37.766Z,67.01
2023-05-14T05:45:04.423Z,66.85
2023-05-14T05:47:31.142Z,66.87
2023-05-14T05:49:57.754Z,67.04
2023-05-14T05:52:24.611Z,67.20
2023-05-14T05:54:51.198Z,67.16
2023-05-14T05:57:17.951Z,67.21
2023-05-14T05:59:44.551Z,66.91
2023-05-14T06:02:11.196Z,66.99
2023-05-14T06:04:37.788Z,66.92
2023-05-14T06:07:06.105Z,67.72
2023-05-14T06:09:32.699Z,67.15
2023-05-14T06:11:59.264Z,67.42
2023-05-14T06:14:27.922Z,67.45
2023-05-14T06:16:54.553Z,66.94
2023-05-14T06:19:21.222Z,67.10
2023-05-14T06:21:47.880Z,67.42
2023-05-14T06:24:14.441Z,67.07
2023-05-14T06:26:41.129Z,67.18
2023-05-14T06:29:07.785Z,66.95
2023-05-14T06:31:35.367Z,66.98
2023-05-14T06:34:02.024Z,67.01
2023-05-14T06:36:28.819Z,66.93
2023-05-14T06:38:55.407Z,66.98
2023-05-14T06:41:22.076Z,66.98
2023-05-14T06:43:48.667Z,66.76
2023-05-14T06:46:15.238Z,66.99
2023-05-14T06:48:41.897Z,67.01
2023-05-14T06:51:08.503Z,67.13
2023-05-14T06:53:35.127Z,66.94
2023-05-14T06:56:01.766Z,67.16
2023-05-14T06:58:28.355Z,66.51
2023-05-14T07:00:54.917Z,67.02
2023-05-14T07:03:21.504Z,66.84
2023-05-14T07:05:48.057Z,66.68
2023-05-14T07:08:14.729Z,66.76
2023-05-14T07:10:41.282Z,66.57
2023-05-14T07:13:07.883Z,66.51
2023-05-14T07:15:34.487Z,66.05
2023-05-14T07:18:01.177Z,66.15
2023-05-14T07:20:27.932Z,66.25
2023-05-14T07:22:54.714Z,66.42
2023-05-14T07:25:21.315Z,66.49
2023-05-14T07:27:47.996Z,66.47
2023-05-14T07:30:14.592Z,66.10
2023-05-14T07:32:41.483Z,66.81
2023-05-14T07:35:08.591Z,66.73
2023-05-14T07:37:35.289Z,66.62
2023-05-14T07:40:02.127Z,66.93
2023-05-14T07:42:35.755Z,67.13
2023-05-14T07:45:03.416Z,67.17
2023-05-14T07:47:30.125Z,66.21
2023-05-14T07:49:56.952Z,66.85
2023-05-14T07:52:23.554Z,66.85
2023-05-14T07:54:50.891Z,67.00
2023-05-14T07:57:17.515Z,66.99
2023-05-14T07:59:44.081Z,66.71
2023-05-14T08:02:10.712Z,67.45
2023-05-14T08:04:37.361Z,66.82
2023-05-14T08:07:03.995Z,66.48
2023-05-14T08:09:30.922Z,66.86
2023-05-14T08:11:57.872Z,66.94
2023-05-14T08:14:24.516Z,67.08
2023-05-14T08:16:51.111Z,67.51
2023-05-14T08:19:17.860Z,67.59
2023-05-14T08:21:44.565Z,67.38
2023-05-14T08:24:11.157Z,67.59
2023-05-14T08:26:37.714Z,66.57
2023-05-14T08:29:04.299Z,66.82
2023-05-14T08:31:30.967Z,66.74
2023-05-14T08:33:57.558Z,66.81
2023-05-14T08:36:25.162Z,67.49
2023-05-14T08:38:51.753Z,67.11
2023-05-14T08:41:18.320Z,68.74
2023-05-14T08:43:47.024Z,67.52
2023-05-14T08:46:13.647Z,67.20
2023-05-14T08:48:40.303Z,67.42
2023-05-14T08:51:06.915Z,69.31
2023-05-14T08:53:33.583Z,70.15
2023-05-14T08:56:01.041Z,69.40
2023-05-14T08:58:27.618Z,69.44
2023-05-14T09:00:54.304Z,67.99
2023-05-14T09:03:20.987Z,68.05
2023-05-14T09:05:47.587Z,68.79
2023-05-14T09:08:14.194Z,67.76
2023-05-14T09:10:40.756Z,67.96
2023-05-14T09:13:07.341Z,67.51
2023-05-14T09:15:33.913Z,68.09
2023-05-14T09:18:00.537Z,68.32
2023-05-14T09:20:27.423Z,67.53
2023-05-14T09:22:54.529Z,67.71
2023-05-14T09:25:21.393Z,67.13
2023-05-14T09:27:48.050Z,67.11
2023-05-14T09:30:14.657Z,66.22
2023-05-14T09:32:41.242Z,65.61
2023-05-14T09:35:07.851Z,65.79
2023-05-14T09:37:34.665Z,64.92
2023-05-14T09:40:01.486Z,65.15
2023-05-14T09:42:28.846Z,64.15
2023-05-14T09:44:56.028Z,64.65
2023-05-14T09:47:22.738Z,65.70
2023-05-14T09:49:50.367Z,65.76
2023-05-14T09:52:16.962Z,64.97
2023-05-14T09:54:43.612Z,64.70
2023-05-14T09:57:10.275Z,65.69
2023-05-14T09:59:37.059Z,65.36
2023-05-14T10:02:03.636Z,65.61
2023-05-14T10:04:30.215Z,65.57
2023-05-14T10:06:56.873Z,65.90
2023-05-14T10:09:27.020Z,65.89
2023-05-14T10:11:53.750Z,65.55
2023-05-14T10:14:20.310Z,64.77
2023-05-14T10:16:47.020Z,64.42
2023-05-14T10:19:13.670Z,64.38
2023-05-14T10:21:40.350Z,64.18
2023-05-14T10:24:06.962Z,64.13
2023-05-14T10:26:33.833Z,64.11
2023-05-14T10:29:00.502Z,64.29
2023-05-14T10:31:27.146Z,63.55
2023-05-14T10:33:53.823Z,63.25
2023-05-14T10:36:20.512Z,62.79
2023-05-14T10:38:47.130Z,63.46
2023-05-14T10:41:13.906Z,63.09
2023-05-14T10:43:40.525Z,62.85
2023-05-14T10:46:07.173Z,62.90
2023-05-14T10:48:33.780Z,63.24
2023-05-14T10:51:00.434Z,63.80
2023-05-14T10:53:27.328Z,63.23
2023-05-14T10:55:53.893Z,64.00
2023-05-14T10:58:21.105Z,64.95
2023-05-14T11:00:47.691Z,63.83
2023-05-14T11:03:14.306Z,64.64
2023-05-14T11:05:40.880Z,64.50
2023-05-14T11:08:07.483Z,65.58
2023-05-14T11:10:34.318Z,64.51
2023-05-14T11:13:01.293Z,66.62
2023-05-14T11:15:27.946Z,67.47
2023-05-14T11:17:54.697Z,66.83
2023-05-14T11:20:21.434Z,68.22
2023-05-14T11:22:48.060Z,67.27
2023-05-14T11:25:15.151Z,66.66
2023-05-14T11:27:41.857Z,68.03
2023-05-14T11:30:08.433Z,67.91
2023-05-14T11:32:35.589Z,68.98
2023-05-14T11:35:02.204Z,69.76
2023-05-14T11:37:28.795Z,69.57
2023-05-14T11:39:55.400Z,70.21
2023-05-14T11:42:21.967Z,70.17
2023-05-14T11:44:48.665Z,69.32
2023-05-14T11:47:15.450Z,69.04
2023-05-14T11:49:42.065Z,69.85
2023-05-14T11:52:08.643Z,70.37
2023-05-14T11:54:35.243Z,70.66
2023-05-14T11:57:01.841Z,70.87
2023-05-14T11:59:28.639Z,70.90
2023-05-14T12:01:55.199Z,70.92
2023-05-14T12:04:22.138Z,69.99
2023-05-14T12:06:48.925Z,68.46
2023-05-14T12:09:15.538Z,67.64
2023-05-14T12:11:42.392Z,68.09
2023-05-14T12:14:10.176Z,67.62
2023-05-14T12:19:21.159Z,68.07
2023-05-14T12:21:47.795Z,68.82
2023-05-14T12:24:14.615Z,68.90
2023-05-14T12:26:41.192Z,69.68
2023-05-14T12:29:07.795Z,69.06
2023-05-14T12:31:34.423Z,68.85
2023-05-14T12:34:01.027Z,69.34
2023-05-14T12:36:27.630Z,71.17
2023-05-14T12:38:54.208Z,70.68
2023-05-14T12:41:20.836Z,70.14
2023-05-14T12:43:47.405Z,69.51
2023-05-14T12:46:14.626Z,68.94
2023-05-14T12:48:41.209Z,68.79
2023-05-14T12:51:07.805Z,68.30
2023-05-14T12:53:34.397Z,69.23
2023-05-14T12:56:00.978Z,69.10
2023-05-14T12:58:27.632Z,68.79
2023-05-14T13:00:54.321Z,67.85
2023-05-14T13:03:20.998Z,67.40
2023-05-14T13:05:47.612Z,68.04
2023-05-14T13:08:14.205Z,67.83
2023-05-14T13:10:40.760Z,68.97
2023-05-14T13:13:07.341Z,69.60
2023-05-14T13:15:33.945Z,68.93
2023-05-14T13:18:00.649Z,69.87
2023-05-14T13:20:27.337Z,71.02
2023-05-14T13:22:54.033Z,71.08
2023-05-14T13:25:20.662Z,71.40
2023-05-14T13:27:47.264Z,72.30
2023-05-14T13:30:13.858Z,71.52
2023-05-14T13:32:42.192Z,71.34
2023-05-14T13:35:08.931Z,71.01
2023-05-14T13:37:35.475Z,70.93
2023-05-14T13:40:02.062Z,71.00
2023-05-14T13:42:28.659Z,69.92
2023-05-14T13:44:55.252Z,70.70
2023-05-14T13:47:21.840Z,70.67
2023-05-14T13:49:49.596Z,70.11
2023-05-14T13:52:16.195Z,70.43
2023-05-14T13:54:42.770Z,69.41
2023-05-14T13:57:09.350Z,70.04
2023-05-14T13:59:37.072Z,69.02
2023-05-14T14:02:03.841Z,69.02
2023-05-14T14:04:30.517Z,69.35
2023-05-14T14:06:57.115Z,69.15
2023-05-14T14:09:24.179Z,67.97
2023-05-14T14:11:50.802Z,67.84
2023-05-14T14:14:17.416Z,68.51
2023-05-14T14:16:44.074Z,67.84
2023-05-14T14:19:10.882Z,67.54
2023-05-14T14:21:37.863Z,66.69
2023-05-14T14:24:04.461Z,66.93
2023-05-14T14:26:31.027Z,66.85
2023-05-14T14:28:57.607Z,67.24
2023-05-14T14:31:24.233Z,66.81
2023-05-14T14:33:50.840Z,66.55
2023-05-14T14:36:17.931Z,65.85
2023-05-14T14:38:44.491Z,66.06
2023-05-14T14:41:11.288Z,66.21
2023-05-14T14:43:37.853Z,66.27
2023-05-14T14:46:04.503Z,65.81
2023-05-14T14:48:31.094Z,65.52
2023-05-14T14:50:57.808Z,65.65
2023-05-14T14:53:24.641Z,65.07
2023-05-14T14:55:51.263Z,65.44
2023-05-14T14:58:17.841Z,65.43
2023-05-14T15:00:44.438Z,65.17
2023-05-14T15:03:11.117Z,65.81
2023-05-14T15:05:37.886Z,65.54
2023-05-14T15:08:04.476Z,65.24
2023-05-14T15:10:31.066Z,65.96
2023-05-14T15:12:57.668Z,65.99
2023-05-14T15:15:24.426Z,65.90
2023-05-14T15:17:51.119Z,65.98
2023-05-14T15:20:17.714Z,65.89
2023-05-14T15:22:44.289Z,66.33
2023-05-14T15:25:11.228Z,65.97
2023-05-14T15:27:37.942Z,65.37
2023-05-14T15:30:04.542Z,66.24
2023-05-14T15:32:31.114Z,66.65
2023-05-14T15:34:57.739Z,66.71
2023-05-14T15:37:24.342Z,66.31
2023-05-14T15:39:50.958Z,66.20
2023-05-14T15:42:17.801Z,66.51
2023-05-14T15:44:44.369Z,66.20
2023-05-14T15:47:11.002Z,66.07
2023-05-14T15:49:37.603Z,65.69
2023-05-14T15:52:04.172Z,65.69
2023-05-14T15:54:30.762Z,65.79
2023-05-14T15:56:57.385Z,65.71
2023-05-14T15:59:24.042Z,65.72
2023-05-14T16:01:50.703Z,65.91
2023-05-14T16:04:17.557Z,65.64
2023-05-14T16:06:44.145Z,66.04
2023-05-14T16:09:10.717Z,66.23
2023-05-14T16:11:37.283Z,66.18
2023-05-14T16:14:03.879Z,66.01
2023-05-14T16:16:30.770Z,66.16
2023-05-14T16:18:57.607Z,66.54
2023-05-14T16:21:24.217Z,66.58
2023-05-14T16:23:50.807Z,66.88
2023-05-14T16:26:17.446Z,66.87
2023-05-14T16:28:44.069Z,67.09
2023-05-14T16:31:10.656Z,66.75
2023-05-14T16:33:37.326Z,66.44
2023-05-14T16:36:03.982Z,66.34
2023-05-14T16:38:30.619Z,66.24
2023-05-14T16:40:57.228Z,66.29
2023-05-14T16:43:23.826Z,67.05
2023-05-14T16:45:50.432Z,66.61
2023-05-14T16:48:17.148Z,66.24
2023-05-14T16:50:43.781Z,66.61
2023-05-14T16:53:10.353Z,66.32
2023-05-14T16:55:36.962Z,66.64
2023-05-14T16:58:03.642Z,66.59
2023-05-14T17:00:30.242Z,66.32
2023-05-14T17:02:56.954Z,66.68
2023-05-14T17:05:23.708Z,66.71
2023-05-14T17:07:51.460Z,66.34
2023-05-14T17:10:18.050Z,65.89
2023-05-14T17:12:45.216Z,65.83
2023-05-14T17:15:11.814Z,64.98
2023-05-14T17:17:41.342Z,65.58
2023-05-14T17:20:08.259Z,66.07
2023-05-14T17:22:35.030Z,65.56
2023-05-14T17:25:01.625Z,65.98
2023-05-14T17:27:28.248Z,66.06
2023-05-14T17:29:54.896Z,66.71
2023-05-14T17:32:21.494Z,66.60
2023-05-14T17:34:48.147Z,66.37
2023-05-14T17:37:14.749Z,65.99
2023-05-14T17:39:41.319Z,65.94
2023-05-14T17:42:08.146Z,66.44
2023-05-14T17:44:34.740Z,66.56
2023-05-14T17:47:01.528Z,66.68
2023-05-14T17:49:28.381Z,66.88
2023-05-14T17:51:55.013Z,67.33
2023-05-14T17:54:21.582Z,67.07
2023-05-14T17:56:48.282Z,66.95
2023-05-14T17:59:14.897Z,66.69
2023-05-14T18:01:42.587Z,66.49
2023-05-14T18:04:09.354Z,66.53
2023-05-14T18:06:35.982Z,66.46
2023-05-14T18:09:02.561Z,66.41
2023-05-14T18:11:29.169Z,66.40
2023-05-14T18:13:55.746Z,66.66
2023-05-14T18:16:22.410Z,67.25
2023-05-14T18:18:49.116Z,66.90
2023-05-14T18:21:15.790Z,66.94
2023-05-14T18:23:42.352Z,66.85
2023-05-14T18:26:08.938Z,66.76
2023-05-14T18:28:35.493Z,66.30
2023-05-14T18:31:02.134Z,66.74
2023-05-14T18:33:28.854Z,66.91
2023-05-14T18:35:55.438Z,67.20
2023-05-14T18:38:22.239Z,66.73
2023-05-14T18:40:48.798Z,66.75
2023-05-14T18:43:15.386Z,66.85
2023-05-14T18:45:41.958Z,66.75
2023-05-14T18:48:08.708Z,66.55
2023-05-14T18:50:36.550Z,66.26
2023-05-14T18:53:04.864Z,66.31
2023-05-14T18:55:31.518Z,66.47
2023-05-14T18:57:58.080Z,66.44
2023-05-14T19:00:24.712Z,66.43
2023-05-14T19:02:51.420Z,66.32
2023-05-14T19:05:18.199Z,66.54
2023-05-14T19:07:44.793Z,66.51
2023-05-14T19:10:11.365Z,66.63
2023-05-14T19:12:37.950Z,66.29
2023-05-14T19:15:04.528Z,66.37
2023-05-14T19:17:31.155Z,66.35
2023-05-14T19:19:57.734Z,66.58
2023-05-14T19:22:24.358Z,67.05
2023-05-14T19:24:51.017Z,67.40
2023-05-14T19:27:17.651Z,67.59
2023-05-14T19:29:44.231Z,67.41
2023-05-14T19:32:10.840Z,67.60
2023-05-14T19:34:37.407Z,67.68
2023-05-14T19:37:05.064Z,67.47
2023-05-14T19:39:31.619Z,67.23
2023-05-14T19:41:58.178Z,67.90
2023-05-14T19:44:24.791Z,67.30
2023-05-14T19:46:51.414Z,67.41
2023-05-14T19:49:18.024Z,67.14
2023-05-14T19:51:44.735Z,67.37
2023-05-14T19:54:11.331Z,67.20
2023-05-14T19:56:37.920Z,67.34
2023-05-14T19:59:04.527Z,67.02
2023-05-14T20:01:31.160Z,67.23
2023-05-14T20:03:57.904Z,66.65
2023-05-14T20:06:24.494Z,67.10
2023-05-14T20:08:51.790Z,67.13
2023-05-14T20:11:18.393Z,67.48
2023-05-14T20:13:44.955Z,67.05
2023-05-14T20:16:11.556Z,66.98
2023-05-14T20:18:38.206Z,67.17
2023-05-14T20:21:04.790Z,67.21
2023-05-14T20:23:31.376Z,66.96
2023-05-14T20:25:57.958Z,67.25
2023-05-14T20:28:24.973Z,66.88
2023-05-14T20:30:55.307Z,66.69
2023-05-14T20:33:21.933Z,66.53
2023-05-14T20:35:48.571Z,66.68
2023-05-14T20:38:15.183Z,66.67
2023-05-14T20:40:42.154Z,67.02
2023-05-14T20:43:08.703Z,67.12
2023-05-14T20:45:35.299Z,66.55
2023-05-14T20:48:01.858Z,67.13
2023-05-14T20:50:28.486Z,66.94
2023-05-14T20:52:55.046Z,67.53
2023-05-14T20:55:21.661Z,67.34
2023-05-14T20:57:48.223Z,67.19
2023-05-14T21:00:15.006Z,67.44
2023-05-14T21:02:41.865Z,67.06
2023-05-14T21:05:08.556Z,67.35
2023-05-14T21:07:35.152Z,66.93
2023-05-14T21:10:01.933Z,66.92
2023-05-14T21:12:28.486Z,66.88
2023-05-14T21:14:55.158Z,66.73
2023-05-14T21:17:21.763Z,66.79
2023-05-14T21:19:48.350Z,66.77
2023-05-14T21:22:14.954Z,66.95
2023-05-14T21:24:41.565Z,67.29
2023-05-14T21:27:08.157Z,67.04
2023-05-14T21:29:34.725Z,67.24
2023-05-14T21:32:01.406Z,68.15
2023-05-14T21:34:29.181Z,68.14
2023-05-14T21:36:57.068Z,68.45
2023-05-14T21:39:23.668Z,68.26
2023-05-14T21:41:50.256Z,67.83
2023-05-14T21:44:17.379Z,67.38
2023-05-14T21:46:45.979Z,67.70
2023-05-14T21:49:12.574Z,67.43
2023-05-14T21:51:39.153Z,67.20
2023-05-14T21:54:05.747Z,67.39
2023-05-14T21:56:32.349Z,67.45
2023-05-14T21:58:59.096Z,67.02
2023-05-14T22:01:25.762Z,66.87
2023-05-14T22:03:52.694Z,66.96
2023-05-14T22:06:19.336Z,66.67
2023-05-14T22:08:45.894Z,67.19
2023-05-14T22:11:12.489Z,67.99
2023-05-14T22:13:39.076Z,67.58
2023-05-14T22:16:12.847Z,68.32
2023-05-14T22:18:40.511Z,68.18
2023-05-14T22:21:07.133Z,67.43
2023-05-14T22:23:33.704Z,67.45
2023-05-14T22:26:00.634Z,67.57
2023-05-14T22:28:27.335Z,66.99
2023-05-14T22:30:53.955Z,67.22
2023-05-14T22:33:20.648Z,67.33
2023-05-14T22:35:47.243Z,67.40
2023-05-14T22:38:14.060Z,67.82
2023-05-14T22:40:40.667Z,67.37
2023-05-14T22:43:07.285Z,67.30
2023-05-14T22:45:33.853Z,67.37
2023-05-14T22:48:00.537Z,67.82
2023-05-14T22:50:27.134Z,67.71
2023-05-14T22:52:53.751Z,67.97
2023-05-14T22:55:20.371Z,67.83
2023-05-14T22:57:47.002Z,67.57
2023-05-14T23:00:13.579Z,67.42
2023-05-14T23:02:40.219Z,67.49
2023-05-14T23:05:06.833Z,67.89
2023-05-14T23:07:33.919Z,67.98
2023-05-14T23:10:00.486Z,67.82
2023-05-14T23:12:27.258Z,67.36
2023-05-14T23:14:53.821Z,67.42
2023-05-14T23:17:20.463Z,67.97
2023-05-14T23:19:47.321Z,68.79
2023-05-14T23:22:14.268Z,69.05
2023-05-14T23:24:40.871Z,68.18
2023-05-14T23:27:07.544Z,67.99
2023-05-14T23:29:34.127Z,67.56
2023-05-14T23:32:00.793Z,67.96
2023-05-14T23:34:27.379Z,67.79
2023-05-14T23:36:53.967Z,68.05
2023-05-14T23:39:20.538Z,67.92
2023-05-14T23:41:47.132Z,68.45
2023-05-14T23:44:13.696Z,68.45
2023-05-14T23:46:40.278Z,67.79
2023-05-14T23:49:06.834Z,68.18
2023-05-14T23:51:33.430Z,68.17
2023-05-14T23:53:59.995Z,68.23
2023-05-14T23:56:26.586Z,68.69
2023-05-14T23:58:53.223Z,70.81
